Time;durP1;ratioP1;P1;durP2;ratioP2;P2;SDS_P1;SDS_P2;PMS_P1;PMS_P2;Temp;Humidity;BMP_temperature;BMP_pressure;BME280_temperature;BME280_humidity;BME280_pressure;Samples;Min_cycle;Max_cycle;Signal;HPM_P1;HPM_P2
2022/07/18 00:01:59;;;;;;;7.13;5.27;;;18.70;99.90;;;;;;5130096;27;20511;-74
2022/07/18 00:04:26;;;;;;;7.35;5.18;;;;;;;;;;5115775;27;20412;-74
2022/07/18 00:06:52;;;;;;;9.45;5.45;;;;;;;;;;5128535;27;20798;-74
2022/07/18 00:09:19;;;;;;;9.43;5.60;;;;;;;;;;5128778;27;20469;-74
2022/07/18 00:11:45;;;;;;;7.30;4.97;;;18.50;99.90;;;;;;5127227;27;20423;-74
2022/07/18 00:14:12;;;;;;;9.80;5.50;;;;;;;;;;5124297;27;20422;-74
2022/07/18 00:16:38;;;;;;;6.97;4.88;;;;;;;;;;5113658;27;20416;-74
2022/07/18 00:19:05;;;;;;;8.23;5.37;;;18.00;99.90;;;;;;5131711;27;20425;-74
2022/07/18 00:21:32;;;;;;;10.65;5.22;;;;;;;;;;5129931;27;20940;-74
2022/07/18 00:23:58;;;;;;;9.50;5.70;;;;;;;;;;5113694;27;20426;-74
2022/07/18 00:26:24;;;;;;;8.07;5.47;;;;;;;;;;5115153;27;20511;-74
2022/07/18 00:28:50;;;;;;;9.50;5.97;;;;;;;;;;5121700;27;21015;-74
2022/07/18 00:31:16;;;;;;;7.97;5.35;;;;;;;;;;5111853;28;20480;-74
2022/07/18 00:33:42;;;;;;;9.90;5.65;;;;;;;;;;5120687;27;20410;-74
2022/07/18 00:36:08;;;;;;;10.82;6.13;;;17.80;99.90;;;;;;5117684;27;20456;-74
2022/07/18 00:38:34;;;;;;;8.57;5.50;;;;;;;;;;5112122;28;20991;-75
2022/07/18 00:41:00;;;;;;;9.55;5.97;;;;;;;;;;5096101;27;20720;-74
2022/07/18 00:43:26;;;;;;;8.75;6.05;;;17.90;99.90;;;;;;5112028;27;20968;-74
2022/07/18 00:45:52;;;;;;;8.88;6.10;;;;;;;;;;5119864;27;20418;-74
2022/07/18 00:48:19;;;;;;;11.60;6.28;;;17.80;99.90;;;;;;5118020;27;20419;-74
2022/07/18 00:50:45;;;;;;;9.13;6.05;;;;;;;;;;5114777;27;20921;-74
2022/07/18 00:53:11;;;;;;;9.50;6.10;;;;;;;;;;5122413;27;20412;-74
2022/07/18 00:55:38;;;;;;;11.13;6.10;;;;;;;;;;5144645;27;20408;-74
2022/07/18 00:58:04;;;;;;;9.25;6.25;;;17.80;99.90;;;;;;5093763;28;20919;-74
2022/07/18 01:03:15;;;;;;;11.13;6.10;;;;;;;;;;5131463;27;20489;-74
2022/07/18 01:05:41;;;;;;;8.80;5.67;;;;;;;;;;5128219;27;20419;-74
2022/07/18 01:08:07;;;;;;;11.13;6.30;;;17.60;99.90;;;;;;5111255;27;20472;-74
2022/07/18 01:10:33;;;;;;;9.17;5.93;;;;;;;;;;5112099;27;20416;-74
2022/07/18 01:12:59;;;;;;;9.43;6.18;;;17.50;99.90;;;;;;5115680;27;20412;-74
2022/07/18 01:15:25;;;;;;;10.35;5.80;;;;;;;;;;5111008;28;20397;-74
2022/07/18 01:17:51;;;;;;;10.43;6.28;;;;;;;;;;5121992;27;20418;-74
2022/07/18 01:20:17;;;;;;;7.80;5.78;;;;;;;;;;5108413;27;20428;-74
2022/07/18 01:22:43;;;;;;;10.98;6.10;;;;;;;;;;5121797;27;20927;-74
2022/07/18 01:25:10;;;;;;;9.67;5.90;;;;;;;;;;5115598;27;20445;-74
2022/07/18 01:27:36;;;;;;;7.93;5.83;;;;;;;;;;5130014;27;20542;-75
2022/07/18 01:30:04;;;;;;;10.52;5.93;;;17.40;99.90;;;;;;5131356;27;20394;-75
2022/07/18 01:32:30;;;;;;;7.38;5.63;;;;;;;;;;5113242;27;20451;-75
2022/07/18 01:34:56;;;;;;;9.48;5.90;;;;;;;;;;5113635;27;20430;-75
2022/07/18 01:37:22;;;;;;;11.90;6.32;;;17.20;99.90;;;;;;5131579;27;20766;-75
2022/07/18 01:39:48;;;;;;;11.82;5.90;;;17.10;99.90;;;;;;5128237;27;20418;-75
2022/07/18 01:42:15;;;;;;;9.43;5.55;;;17.10;99.90;;;;;;5131598;27;20442;-75
2022/07/18 01:44:41;;;;;;;9.50;5.97;;;17.10;99.90;;;;;;5125269;27;20464;-75
2022/07/18 01:47:09;;;;;;;8.00;5.90;;;17.30;99.90;;;;;;5119804;27;20415;-74
2022/07/18 01:49:35;;;;;;;9.00;6.00;;;;;;;;;;5127399;27;20418;-74
2022/07/18 01:52:02;;;;;;;9.25;6.13;;;;;;;;;;5122992;27;20417;-74
2022/07/18 01:54:30;;;;;;;8.80;6.32;;;16.80;99.90;;;;;;5131395;28;20395;-74
2022/07/18 01:56:57;;;;;;;10.00;6.55;;;;;;;;;;5131412;28;20457;-74
2022/07/18 01:59:24;;;;;;;12.18;6.22;;;17.20;99.90;;;;;;5107305;28;20979;-74
2022/07/18 02:01:50;;;;;;;9.23;6.40;;;;;;;;;;5129184;27;20430;-74
2022/07/18 02:04:16;;;;;;;11.57;6.57;;;;;;;;;;5106815;28;20881;-74
2022/07/18 02:06:42;;;;;;;11.38;6.53;;;;;;;;;;5120077;27;20418;-73
2022/07/18 02:09:09;;;;;;;9.70;6.53;;;;;;;;;;5100642;28;20422;-74
2022/07/18 02:11:36;;;;;;;10.10;6.25;;;17.00;99.90;;;;;;5111623;27;20474;-74
2022/07/18 02:14:03;;;;;;;9.88;6.60;;;;;;;;;;5117043;27;20424;-76
2022/07/18 02:16:28;;;;;;;9.93;6.32;;;16.90;99.90;;;;;;5128548;27;20922;-75
2022/07/18 02:18:55;;;;;;;10.73;6.70;;;16.60;99.90;;;;;;5134799;27;20482;-74
2022/07/18 02:21:21;;;;;;;10.45;6.88;;;;;;;;;;5126003;27;20905;-77
2022/07/18 02:23:50;;;;;;;9.77;6.53;;;;;;;;;;5120018;27;20428;-77
2022/07/18 02:26:16;;;;;;;11.25;6.63;;;16.70;99.90;;;;;;5125584;27;20434;-77
2022/07/18 02:28:42;;;;;;;10.63;6.70;;;;;;;;;;5131158;27;20420;-77
2022/07/18 02:31:09;;;;;;;8.57;6.10;;;;;;;;;;5131593;27;20392;-77
2022/07/18 02:33:34;;;;;;;8.52;5.90;;;16.70;99.90;;;;;;5116729;27;20441;-77
2022/07/18 02:36:00;;;;;;;11.38;6.57;;;16.70;99.90;;;;;;5118504;27;20494;-77
2022/07/18 02:38:26;;;;;;;10.73;6.80;;;;;;;;;;5114752;27;20423;-78
2022/07/18 02:40:52;;;;;;;8.87;6.20;;;;;;;;;;5113791;27;20527;-78
2022/07/18 02:43:18;;;;;;;10.63;6.75;;;;;;;;;;5117656;27;20936;-77
2022/07/18 02:45:44;;;;;;;11.77;6.57;;;16.80;99.90;;;;;;5116309;27;20418;-78
2022/07/18 02:48:10;;;;;;;12.10;7.07;;;16.40;99.90;;;;;;5112295;28;20424;-78
2022/07/18 02:50:36;;;;;;;10.20;6.97;;;16.50;99.90;;;;;;5100455;28;20491;-78
2022/07/18 02:53:01;;;;;;;10.67;7.20;;;16.70;99.90;;;;;;5122246;27;20773;-78
2022/07/18 02:55:27;;;;;;;11.03;7.10;;;16.80;99.90;;;;;;5129814;27;20415;-77
2022/07/18 02:57:53;;;;;;;11.23;7.30;;;;;;;;;;5135526;27;20466;-77
2022/07/18 03:00:19;;;;;;;10.48;6.68;;;;;;;;;;5134279;27;20406;-77
2022/07/18 03:02:45;;;;;;;12.65;7.13;;;16.70;99.90;;;;;;5129391;27;20420;-77
2022/07/18 03:05:12;;;;;;;11.32;7.47;;;16.60;99.90;;;;;;5118612;27;20472;-77
2022/07/18 03:07:38;;;;;;;11.13;7.28;;;;;;;;;;5122471;27;20421;-77
2022/07/18 03:10:05;;;;;;;15.75;7.10;;;16.50;99.90;;;;;;5114550;27;20447;-77
2022/07/18 03:12:31;;;;;;;14.63;7.15;;;16.60;99.90;;;;;;5133658;27;20814;-77
2022/07/18 03:14:57;;;;;;;12.07;7.13;;;;;;;;;;5130393;27;20408;-77
2022/07/18 03:17:24;;;;;;;12.15;7.45;;;;;;;;;;5098854;27;20416;-77
2022/07/18 03:19:49;;;;;;;12.73;7.10;;;16.70;99.90;;;;;;5113729;28;20400;-77
2022/07/18 03:22:15;;;;;;;13.10;7.40;;;;;;;;;;5113485;27;20473;-77
2022/07/18 03:24:41;;;;;;;14.25;6.82;;;;;;;;;;5113303;28;20404;-77
2022/07/18 03:27:08;;;;;;;13.43;7.20;;;;;;;;;;5096781;27;20417;-77
2022/07/18 03:29:33;;;;;;;14.70;7.20;;;16.50;99.90;;;;;;5117824;27;20705;-78
2022/07/18 03:31:59;;;;;;;12.00;7.30;;;;;;;;;;5073036;28;20416;-78
2022/07/18 03:34:25;;;;;;;12.80;7.15;;;;;;;;;;5113429;27;20942;-77
2022/07/18 03:36:51;;;;;;;12.02;7.47;;;;;;;;;;5115466;27;20744;-77
2022/07/18 03:39:17;;;;;;;12.60;7.35;;;;;;;;;;5129695;27;20420;-77
2022/07/18 03:41:44;;;;;;;14.97;7.70;;;;;;;;;;5113189;27;20497;-78
2022/07/18 03:44:10;;;;;;;13.55;7.70;;;;;;;;;;5112587;27;20759;-77
2022/07/18 03:46:35;;;;;;;13.70;7.30;;;16.30;99.90;;;;;;5129158;27;20424;-78
2022/07/18 03:49:02;;;;;;;13.25;8.15;;;16.20;99.90;;;;;;5108813;27;20431;-78
2022/07/18 03:51:28;;;;;;;12.00;7.87;;;16.40;99.90;;;;;;5104908;27;20419;-77
2022/07/18 03:53:54;;;;;;;12.07;7.23;;;;;;;;;;5133389;27;20394;-77
2022/07/18 03:56:19;;;;;;;11.67;7.33;;;16.00;99.90;;;;;;5110313;27;20412;-77
2022/07/18 03:58:47;;;;;;;13.00;7.87;;;;;;;;;;5124148;27;20419;-77
2022/07/18 04:01:13;;;;;;;11.50;7.10;;;;;;;;;;5105180;27;20424;-77
2022/07/18 04:03:38;;;;;;;11.43;7.47;;;16.00;99.90;;;;;;5095513;28;20423;-77
2022/07/18 04:06:04;;;;;;;12.73;7.22;;;16.30;99.90;;;;;;5119995;27;20511;-75
2022/07/18 04:08:30;;;;;;;11.55;7.25;;;16.00;99.90;;;;;;5114268;27;20424;-76
2022/07/18 04:10:56;;;;;;;11.25;7.65;;;16.20;99.90;;;;;;5124351;27;20420;-75
2022/07/18 04:13:22;;;;;;;10.48;7.15;;;;;;;;;;5113216;27;20479;-75
2022/07/18 04:15:48;;;;;;;14.85;7.70;;;16.20;99.90;;;;;;5113093;27;20419;-75
2022/07/18 04:18:13;;;;;;;12.75;7.25;;;15.90;99.90;;;;;;5141211;27;20436;-75
2022/07/18 04:20:39;;;;;;;12.00;7.00;;;16.00;99.90;;;;;;5125773;27;20841;-75
2022/07/18 04:23:06;;;;;;;13.23;7.00;;;;;;;;;;5121984;27;20455;-75
2022/07/18 04:25:41;;;;;;;10.45;6.60;;;16.10;99.90;;;;;;5146343;27;20400;-75
2022/07/18 04:28:08;;;;;;;13.93;6.67;;;;;;;;;;5152455;27;20920;-75
2022/07/18 04:30:34;;;;;;;9.77;6.55;;;16.10;99.90;;;;;;5113379;27;20745;-75
2022/07/18 04:33:05;;;;;;;11.02;6.85;;;16.40;99.90;;;;;;5112774;28;20407;-75
2022/07/18 04:35:31;;;;;;;12.20;6.53;;;;;;;;;;5117623;27;20428;-75
2022/07/18 04:37:56;;;;;;;10.55;6.30;;;16.40;99.90;;;;;;5095763;28;20404;-75
2022/07/18 04:40:23;;;;;;;14.52;6.43;;;;;;;;;;5118903;27;20945;-76
2022/07/18 04:42:49;;;;;;;11.38;6.97;;;;;;;;;;5100708;27;20427;-75
2022/07/18 04:45:15;;;;;;;9.35;6.30;;;16.50;99.90;;;;;;5115388;27;20938;-75
2022/07/18 04:47:41;;;;;;;13.18;6.82;;;16.70;99.90;;;;;;5143847;27;20927;-75
2022/07/18 04:50:07;;;;;;;11.70;6.88;;;16.60;99.90;;;;;;5153343;27;20396;-75
2022/07/18 04:52:38;;;;;;;11.23;6.23;;;;;;;;;;5124573;27;20413;-75
2022/07/18 04:55:04;;;;;;;12.18;6.03;;;;;;;;;;5130252;27;20501;-75
2022/07/18 04:57:30;;;;;;;11.35;6.95;;;16.80;99.90;;;;;;5131899;27;20433;-75
2022/07/18 04:59:56;;;;;;;13.27;6.57;;;16.50;99.90;;;;;;5131495;27;20419;-75
2022/07/18 05:02:22;;;;;;;11.18;6.10;;;;;;;;;;5148299;27;20408;-75
2022/07/18 05:04:48;;;;;;;10.55;6.15;;;;;;;;;;5136089;27;20438;-75
2022/07/18 05:07:14;;;;;;;10.43;6.20;;;;;;;;;;5101178;27;20416;-75
2022/07/18 05:09:39;;;;;;;11.07;6.50;;;16.70;99.90;;;;;;5131371;27;20423;-74
2022/07/18 05:12:05;;;;;;;9.80;6.45;;;16.50;99.90;;;;;;5123270;27;20439;-74
2022/07/18 05:14:31;;;;;;;13.32;7.13;;;;;;;;;;5116113;27;20775;-74
2022/07/18 05:16:57;;;;;;;11.68;6.90;;;;;;;;;;5122286;27;20419;-73
2022/07/18 05:19:23;;;;;;;12.23;6.77;;;16.60;99.90;;;;;;5131601;27;20401;-73
2022/07/18 05:21:49;;;;;;;10.67;6.73;;;;;;;;;;5095492;27;20416;-73
2022/07/18 05:24:15;;;;;;;11.40;6.80;;;16.60;99.90;;;;;;5150458;27;20425;-74
2022/07/18 05:26:41;;;;;;;13.43;6.40;;;16.70;99.90;;;;;;5134913;27;20428;-75
2022/07/18 05:29:07;;;;;;;11.90;6.73;;;16.40;99.90;;;;;;5102695;27;20397;-75
2022/07/18 05:31:33;;;;;;;9.43;6.25;;;16.70;99.90;;;;;;5125737;27;20781;-74
2022/07/18 05:33:58;;;;;;;12.60;6.85;;;16.90;99.90;;;;;;5108137;28;20407;-74
2022/07/18 05:36:24;;;;;;;11.17;6.50;;;16.90;99.90;;;;;;5122654;27;21020;-74
2022/07/18 05:38:50;;;;;;;11.90;6.83;;;;;;;;;;5100110;27;20439;-75
2022/07/18 05:41:16;;;;;;;11.95;6.63;;;16.60;99.90;;;;;;5123171;27;20411;-74
2022/07/18 05:43:42;;;;;;;12.13;6.67;;;;;;;;;;5118083;27;20919;-75
2022/07/18 05:46:08;;;;;;;11.10;6.78;;;;;;;;;;5133021;27;20409;-76
2022/07/18 05:48:34;;;;;;;13.18;6.80;;;;;;;;;;5114691;28;20495;-76
2022/07/18 05:51:00;;;;;;;11.40;6.20;;;;;;;;;;5110413;28;20528;-76
2022/07/18 05:53:26;;;;;;;10.77;6.30;;;;;;;;;;5123641;27;20412;-75
2022/07/18 05:55:52;;;;;;;10.80;6.40;;;;;;;;;;5111254;28;20475;-76
2022/07/18 05:58:19;;;;;;;9.45;6.10;;;;;;;;;;5111279;28;20400;-77
2022/07/18 06:00:45;;;;;;;13.63;6.47;;;;;;;;;;5126154;27;20504;-75
2022/07/18 06:03:11;;;;;;;11.33;6.60;;;;;;;;;;5118190;27;20496;-77
2022/07/18 06:05:37;;;;;;;13.43;6.95;;;;;;;;;;5102293;28;20491;-76
2022/07/18 06:08:04;;;;;;;11.37;6.43;;;;;;;;;;5077329;28;20420;-75
2022/07/18 06:10:44;;;;;;;11.48;6.47;;;;;;;;;;5129452;28;20414;-75
2022/07/18 06:13:10;;;;;;;14.18;6.90;;;;;;;;;;5118563;27;20412;-74
2022/07/18 06:15:36;;;;;;;12.27;6.53;;;;;;;;;;5123678;27;20411;-74
2022/07/18 06:18:03;;;;;;;11.98;6.78;;;;;;;;;;5093888;28;20422;-73
2022/07/18 06:20:29;;;;;;;13.60;6.28;;;;;;;;;;5119230;27;20448;-74
2022/07/18 06:22:55;;;;;;;13.18;6.13;;;17.80;99.90;;;;;;5111606;28;20410;-74
2022/07/18 06:25:21;;;;;;;9.63;5.68;;;;;;;;;;5077063;28;20426;-74
2022/07/18 06:27:47;;;;;;;10.13;6.13;;;;;;;;;;5105236;28;20932;-73
2022/07/18 06:30:13;;;;;;;10.85;6.43;;;;;;;;;;5118059;27;20419;-74
2022/07/18 06:32:40;;;;;;;13.27;6.10;;;;;;;;;;5107448;28;20414;-74
2022/07/18 06:35:06;;;;;;;10.77;6.70;;;;;;;;;;5116563;27;20423;-74
2022/07/18 06:37:32;;;;;;;12.10;6.55;;;;;;;;;;5123261;27;20420;-75
2022/07/18 06:39:58;;;;;;;10.63;5.95;;;;;;;;;;5107016;28;20414;-75
2022/07/18 06:42:24;;;;;;;11.15;5.43;;;19.10;99.90;;;;;;5092311;28;20904;-75
2022/07/18 06:44:50;;;;;;;9.67;5.77;;;19.00;99.90;;;;;;5103832;28;20428;-74
2022/07/18 06:47:16;;;;;;;14.43;6.00;;;;;;;;;;5112924;28;20418;-75
2022/07/18 06:49:43;;;;;;;14.30;5.72;;;19.40;99.90;;;;;;5102080;28;20772;-75
2022/07/18 06:52:11;;;;;;;13.32;5.70;;;19.40;99.90;;;;;;5110225;28;20922;-74
2022/07/18 06:54:38;;;;;;;12.57;5.57;;;;;;;;;;5095260;28;20775;-74
2022/07/18 06:57:07;;;;;;;11.57;5.15;;;19.80;99.90;;;;;;5124740;27;20918;-74
2022/07/18 06:59:33;;;;;;;12.10;5.18;;;20.00;99.90;;;;;;5122232;27;20446;-74
2022/07/18 07:01:59;;;;;;;12.30;4.90;;;20.40;99.90;;;;;;5099406;28;20915;-74
2022/07/18 07:04:24;;;;;;;9.50;4.82;;;20.30;99.90;;;;;;5129287;27;20422;-75
2022/07/18 07:06:50;;;;;;;8.88;4.50;;;20.70;99.90;;;;;;5127796;27;20420;-74
2022/07/18 07:09:16;;;;;;;12.60;5.23;;;21.00;99.90;;;;;;5111044;28;20423;-75
2022/07/18 07:11:42;;;;;;;8.90;3.93;;;21.10;99.90;;;;;;5130106;27;20403;-75
2022/07/18 07:14:08;;;;;;;7.90;4.35;;;20.90;99.90;;;;;;5121401;27;20448;-75
2022/07/18 07:16:33;;;;;;;9.27;4.28;;;21.10;99.90;;;;;;5098886;27;20453;-75
2022/07/18 07:18:59;;;;;;;10.00;3.83;;;21.30;99.90;;;;;;5105452;27;20463;-74
2022/07/18 07:21:25;;;;;;;7.15;3.50;;;21.60;99.90;;;;;;5130592;27;20517;-73
2022/07/18 07:23:51;;;;;;;10.65;3.30;;;21.70;99.90;;;;;;5128885;27;20442;-74
2022/07/18 07:26:17;;;;;;;6.05;3.10;;;21.80;99.90;;;;;;5134172;27;20434;-74
2022/07/18 07:28:42;;;;;;;7.33;3.00;;;21.70;99.90;;;;;;5109370;28;20416;-74
2022/07/18 07:31:08;;;;;;;5.87;2.90;;;22.10;99.90;;;;;;5120909;27;20412;-73
2022/07/18 07:33:34;;;;;;;7.35;2.67;;;22.20;99.90;;;;;;5123206;27;20938;-73
2022/07/18 07:36:01;;;;;;;8.03;3.10;;;22.50;99.90;;;;;;5118070;27;20470;-74
2022/07/18 07:38:28;;;;;;;9.60;3.53;;;22.60;99.90;;;;;;5132812;27;20421;-75
2022/07/18 07:40:55;;;;;;;5.90;2.35;;;22.80;99.90;;;;;;5123692;27;20509;-75
2022/07/18 07:43:21;;;;;;;5.45;2.40;;;22.30;99.90;;;;;;5115148;27;20417;-72
2022/07/18 07:45:48;;;;;;;7.32;2.40;;;23.00;99.90;;;;;;5128556;27;20412;-74
2022/07/18 07:48:15;;;;;;;4.80;2.50;;;22.90;99.90;;;;;;5107970;28;20431;-74
2022/07/18 07:50:41;;;;;;;5.10;2.60;;;22.90;99.90;;;;;;5122052;27;20489;-75
2022/07/18 07:53:07;;;;;;;5.60;2.63;;;23.10;99.90;;;;;;5127210;27;20908;-75
2022/07/18 07:55:33;;;;;;;5.40;2.30;;;23.20;99.90;;;;;;5134155;27;20484;-75
2022/07/18 07:57:59;;;;;;;4.35;2.13;;;23.30;99.90;;;;;;5126485;27;20423;-74
2022/07/18 08:00:26;;;;;;;4.63;1.98;;;23.40;99.90;;;;;;5110945;27;20417;-74
2022/07/18 08:02:52;;;;;;;7.63;2.23;;;23.90;99.90;;;;;;5124598;27;20407;-73
2022/07/18 08:05:18;;;;;;;5.50;2.33;;;24.30;99.90;;;;;;5114754;27;20486;-75
2022/07/18 08:07:43;;;;;;;5.72;2.05;;;24.20;99.90;;;;;;5094244;27;20445;-75
2022/07/18 08:10:09;;;;;;;4.85;2.10;;;24.50;99.90;;;;;;5124745;27;20462;-74
2022/07/18 08:12:35;;;;;;;5.43;1.90;;;24.60;99.90;;;;;;5125173;27;20415;-75
2022/07/18 08:15:00;;;;;;;5.20;2.20;;;24.50;99.90;;;;;;5098786;27;20418;-74
2022/07/18 08:17:26;;;;;;;4.15;2.20;;;24.70;99.90;;;;;;5116004;27;20549;-74
2022/07/18 08:19:52;;;;;;;4.55;2.20;;;24.80;99.90;;;;;;5106076;28;20455;-74
2022/07/18 08:22:18;;;;;;;5.55;2.60;;;24.80;99.90;;;;;;5117734;27;20414;-74
2022/07/18 08:24:43;;;;;;;5.00;2.10;;;24.90;99.90;;;;;;5131968;27;20483;-74
2022/07/18 08:27:09;;;;;;;5.10;2.03;;;25.20;99.90;;;;;;5117897;27;20431;-75
2022/07/18 08:29:35;;;;;;;4.80;2.10;;;24.80;99.90;;;;;;5112059;28;20430;-74
2022/07/18 08:32:01;;;;;;;7.03;2.20;;;25.20;99.90;;;;;;5127326;27;20450;-74
2022/07/18 08:34:26;;;;;;;4.97;1.90;;;25.40;99.90;;;;;;5124529;27;20422;-74
2022/07/18 08:36:52;;;;;;;4.97;1.90;;;25.40;99.90;;;;;;5097611;28;20477;-75
2022/07/18 08:39:18;;;;;;;4.90;2.10;;;25.70;99.90;;;;;;5122425;27;20929;-75
2022/07/18 08:41:46;;;;;;;5.27;2.10;;;25.90;99.90;;;;;;5111750;28;20412;-75
2022/07/18 08:44:13;;;;;;;7.10;2.13;;;25.90;99.90;;;;;;5120121;27;20422;-75
2022/07/18 08:46:41;;;;;;;3.97;2.10;;;26.10;99.90;;;;;;5130682;27;20517;-75
2022/07/18 08:49:07;;;;;;;5.85;1.95;;;26.10;99.90;;;;;;5118678;27;20451;-75
2022/07/18 08:51:35;;;;;;;3.88;1.90;;;26.30;99.90;;;;;;5096403;28;20412;-74
2022/07/18 08:54:02;;;;;;;4.97;1.95;;;26.30;99.90;;;;;;5078300;28;20444;-74
2022/07/18 08:56:27;;;;;;;4.60;1.88;;;26.30;99.90;;;;;;5121050;27;20412;-74
2022/07/18 08:58:53;;;;;;;5.15;1.80;;;26.40;99.90;;;;;;5113578;27;20424;-74
2022/07/18 09:01:19;;;;;;;5.40;1.90;;;26.40;99.90;;;;;;5126587;27;20424;-74
2022/07/18 09:04:14;;;;;;;8.05;1.92;;;26.40;99.90;;;;;;5112819;28;20488;-74
2022/07/18 09:06:44;;;;;;;6.30;2.00;;;26.50;99.90;;;;;;5112888;27;20423;-74
2022/07/18 09:09:11;;;;;;;5.38;1.92;;;26.80;99.90;;;;;;5111003;27;20832;-73
2022/07/18 09:11:48;;;;;;;4.97;2.17;;;26.60;99.90;;;;;;5131345;27;20808;-73
2022/07/18 09:14:39;;;;;;;5.75;2.00;;;26.70;99.90;;;;;;5113098;27;20421;-73
2022/07/18 09:17:12;;;;;;;5.63;2.10;;;27.00;99.80;;;;;;5125620;27;20499;-73
2022/07/18 09:19:41;;;;;;;4.93;2.05;;;27.10;99.50;;;;;;5114377;27;20424;-73
2022/07/18 09:22:22;;;;;;;5.38;1.90;;;27.00;99.90;;;;;;5111174;28;20404;-74
2022/07/18 09:25:03;;;;;;;7.03;2.20;;;27.00;99.60;;;;;;5095588;27;20451;-74
2022/07/18 09:27:37;;;;;;;5.35;1.95;;;27.10;98.60;;;;;;5127966;27;20571;-74
2022/07/18 09:30:28;;;;;;;7.75;2.20;;;27.50;99.10;;;;;;5103273;27;20411;-73
2022/07/18 09:33:03;;;;;;;6.15;2.10;;;27.70;98.50;;;;;;5124788;27;20408;-74
2022/07/18 09:35:32;;;;;;;4.13;2.03;;;27.90;99.10;;;;;;5111459;27;20416;-74
2022/07/18 09:38:02;;;;;;;6.47;2.13;;;27.80;99.00;;;;;;5111459;27;20408;-74
2022/07/18 09:40:31;;;;;;;5.63;2.10;;;28.00;98.70;;;;;;5118258;27;20413;-74
2022/07/18 09:43:00;;;;;;;5.25;1.95;;;27.80;98.10;;;;;;5122732;27;20926;-73
2022/07/18 09:45:32;;;;;;;5.72;2.50;;;28.00;97.00;;;;;;5132524;27;20762;-73
2022/07/18 09:48:03;;;;;;;7.45;2.28;;;28.10;97.60;;;;;;5116435;27;20418;-73
2022/07/18 09:50:35;;;;;;;4.55;1.90;;;28.10;97.50;;;;;;5125339;28;20422;-74
2022/07/18 09:53:12;;;;;;;5.53;1.90;;;28.00;97.30;;;;;;5115574;27;20509;-74
2022/07/18 09:55:56;;;;;;;6.15;2.00;;;28.00;97.40;;;;;;5123665;27;20420;-74
2022/07/18 09:58:24;;;;;;;4.85;2.20;;;28.30;96.70;;;;;;5102836;28;20420;-72
2022/07/18 10:00:51;;;;;;;5.05;1.80;;;28.20;96.80;;;;;;5110494;28;20439;-73
2022/07/18 10:03:18;;;;;;;5.90;2.28;;;28.30;97.10;;;;;;5121794;28;20429;-74
2022/07/18 10:05:46;;;;;;;6.10;2.13;;;28.60;97.10;;;;;;5124215;28;20955;-74
2022/07/18 10:08:16;;;;;;;5.53;2.20;;;27.70;96.70;;;;;;5110252;28;20504;-74
2022/07/18 10:10:44;;;;;;;5.95;2.28;;;28.20;96.40;;;;;;5118584;28;20419;-72
2022/07/18 10:13:11;;;;;;;7.97;2.45;;;28.00;95.90;;;;;;5115282;28;20905;-72
2022/07/18 10:15:39;;;;;;;4.63;2.08;;;28.30;95.80;;;;;;5112990;28;20970;-73
2022/07/18 10:18:07;;;;;;;7.20;2.40;;;28.40;96.10;;;;;;5110837;28;20424;-75
2022/07/18 10:20:35;;;;;;;5.88;2.38;;;28.60;96.10;;;;;;5125905;27;20417;-74
2022/07/18 10:23:10;;;;;;;8.43;2.70;;;28.40;95.80;;;;;;5131176;28;20403;-74
2022/07/18 10:25:36;;;;;;;6.70;2.28;;;29.10;95.10;;;;;;5123668;27;20501;-74
2022/07/18 10:28:13;;;;;;;5.82;2.33;;;29.00;95.60;;;;;;5110130;28;20429;-75
2022/07/18 10:30:44;;;;;;;6.53;2.50;;;29.20;95.90;;;;;;5115614;27;20470;-75
2022/07/18 10:33:38;;;;;;;7.40;2.60;;;29.10;95.10;;;;;;5146445;27;20466;-74
2022/07/18 10:36:06;;;;;;;4.88;2.50;;;29.60;94.30;;;;;;5117704;27;20488;-74
2022/07/18 10:38:33;;;;;;;4.87;2.70;;;29.50;93.80;;;;;;5112020;27;20402;-75
2022/07/18 10:41:10;;;;;;;4.20;2.67;;;29.30;93.50;;;;;;5133354;27;20434;-75
2022/07/18 10:43:45;;;;;;;4.90;3.00;;;29.80;92.30;;;;;;5145772;27;20428;-75
2022/07/18 10:46:12;;;;;;;6.05;2.70;;;30.10;92.40;;;;;;5117580;27;20453;-74
2022/07/18 10:48:38;;;;;;;4.88;2.70;;;30.40;92.90;;;;;;5102847;27;20911;-74
2022/07/18 10:51:17;;;;;;;5.60;2.80;;;30.30;92.70;;;;;;5127803;27;20424;-73
2022/07/18 10:54:01;;;;;;;5.28;3.00;;;30.40;92.10;;;;;;5108226;27;20465;-74
2022/07/18 10:56:36;;;;;;;6.10;3.08;;;30.50;92.60;;;;;;5146698;27;20419;-74
2022/07/18 10:59:19;;;;;;;7.53;2.88;;;31.10;92.70;;;;;;5100460;27;20907;-75
2022/07/18 11:02:06;;;;;;;4.55;2.65;;;30.30;92.70;;;;;;5094673;28;20414;-75
2022/07/18 11:04:38;;;;;;;5.85;3.00;;;30.50;92.60;;;;;;5113266;27;20423;-74
2022/07/18 11:07:13;;;;;;;5.53;2.78;;;30.30;92.00;;;;;;5120817;27;20747;-73
2022/07/18 11:09:40;;;;;;;5.87;2.90;;;30.20;91.40;;;;;;5117574;27;20784;-74
2022/07/18 11:12:23;;;;;;;7.05;2.90;;;30.50;92.40;;;;;;5113901;28;20400;-75
2022/07/18 11:14:59;;;;;;;5.80;3.08;;;30.70;91.80;;;;;;5127808;27;20482;-75
2022/07/18 11:17:58;;;;;;;6.18;2.90;;;30.50;92.10;;;;;;5134170;27;20437;-75
2022/07/18 11:20:25;;;;;;;6.05;3.00;;;30.50;91.70;;;;;;5118917;27;20467;-75
2022/07/18 11:22:51;;;;;;;6.80;3.00;;;30.40;92.30;;;;;;5110294;27;20408;-75
2022/07/18 11:25:20;;;;;;;5.50;3.08;;;30.60;91.80;;;;;;5103130;27;20424;-76
2022/07/18 11:27:46;;;;;;;4.57;2.70;;;30.70;91.70;;;;;;5133867;27;20518;-75
2022/07/18 11:30:19;;;;;;;6.10;3.20;;;30.60;91.50;;;;;;5107760;27;20995;-75
2022/07/18 11:32:45;;;;;;;5.40;3.03;;;31.10;91.40;;;;;;5122126;27;20410;-75
2022/07/18 11:35:13;;;;;;;6.72;3.50;;;30.90;91.10;;;;;;5117050;27;20432;-75
2022/07/18 11:37:39;;;;;;;7.10;3.30;;;31.30;90.70;;;;;;5119850;27;20909;-75
2022/07/18 11:40:11;;;;;;;5.35;2.92;;;30.00;90.80;;;;;;5109454;27;20514;-75
2022/07/18 11:42:38;;;;;;;6.10;3.30;;;30.80;91.70;;;;;;5104396;27;20430;-74
2022/07/18 11:45:07;;;;;;;5.75;3.03;;;30.40;91.40;;;;;;5125855;27;20423;-74
2022/07/18 11:47:50;;;;;;;6.73;3.10;;;29.60;90.80;;;;;;5116383;27;20415;-74
2022/07/18 11:50:18;;;;;;;5.63;3.30;;;30.90;90.80;;;;;;5120159;27;20420;-74
2022/07/18 11:52:45;;;;;;;7.32;3.40;;;30.80;90.60;;;;;;5125174;27;20439;-75
2022/07/18 11:55:12;;;;;;;5.07;3.10;;;30.70;90.40;;;;;;5116705;27;20416;-74
2022/07/18 11:57:38;;;;;;;6.68;3.80;;;30.80;90.90;;;;;;5119328;27;20423;-75
2022/07/18 12:00:19;;;;;;;6.85;3.35;;;31.20;90.70;;;;;;5097269;27;20428;-75
2022/07/18 12:03:08;;;;;;;5.40;3.10;;;31.40;90.20;;;;;;5131590;27;20459;-75
2022/07/18 12:05:50;;;;;;;4.75;3.20;;;31.10;90.00;;;;;;5125925;27;20937;-74
2022/07/18 12:08:33;;;;;;;5.00;3.30;;;30.90;88.10;;;;;;5129694;27;20420;-74
2022/07/18 12:11:07;;;;;;;5.47;3.60;;;31.20;90.30;;;;;;5131005;27;20417;-74
2022/07/18 12:13:47;;;;;;;4.53;3.37;;;31.00;88.30;;;;;;5108441;27;20903;-74
2022/07/18 12:16:39;;;;;;;8.00;3.20;;;30.70;89.30;;;;;;5107536;27;20511;-75
2022/07/18 12:19:12;;;;;;;8.82;3.70;;;30.80;88.80;;;;;;5129418;27;20419;-74
2022/07/18 12:21:52;;;;;;;5.28;3.17;;;30.90;89.90;;;;;;5119984;27;20496;-75
2022/07/18 12:24:38;;;;;;;5.93;3.13;;;31.00;88.70;;;;;;5115566;27;20416;-74
2022/07/18 12:27:16;;;;;;;4.90;3.17;;;31.10;88.80;;;;;;5096051;28;20437;-75
2022/07/18 12:30:03;;;;;;;6.10;3.03;;;31.60;88.50;;;;;;5124399;27;20441;-75
2022/07/18 12:32:47;;;;;;;4.43;3.25;;;31.20;87.50;;;;;;5126366;27;20484;-74
2022/07/18 12:35:15;;;;;;;6.00;3.28;;;31.40;86.80;;;;;;5113672;27;20882;-75
2022/07/18 12:37:50;;;;;;;10.93;3.83;;;31.30;88.00;;;;;;5111196;27;20463;-75
2022/07/18 12:40:16;;;;;;;5.57;3.75;;;31.00;85.40;;;;;;5131477;27;20905;-74
2022/07/18 12:42:42;;;;;;;5.33;3.50;;;30.90;84.80;;;;;;5113534;27;20398;-75
2022/07/18 12:45:12;;;;;;;5.17;3.60;;;31.30;85.10;;;;;;5113892;27;20831;-75
2022/07/18 12:47:40;;;;;;;5.53;3.20;;;31.20;85.80;;;;;;5098732;27;20469;-75
2022/07/18 12:50:07;;;;;;;10.40;3.60;;;31.10;86.30;;;;;;5103869;27;20501;-75
2022/07/18 12:52:34;;;;;;;6.00;3.55;;;31.00;86.80;;;;;;5098150;28;20539;-75
2022/07/18 12:55:00;;;;;;;6.03;3.30;;;31.50;87.60;;;;;;5115418;27;20998;-75
2022/07/18 12:57:26;;;;;;;14.38;3.60;;;31.90;86.90;;;;;;5113336;27;20421;-74
2022/07/18 12:59:52;;;;;;;5.45;3.10;;;31.60;85.70;;;;;;5110851;27;20423;-75
2022/07/18 13:02:19;;;;;;;4.97;3.10;;;32.60;86.60;;;;;;5129029;27;20433;-75
2022/07/18 13:04:45;;;;;;;7.22;3.30;;;32.70;87.70;;;;;;5122090;27;20511;-75
2022/07/18 13:07:11;;;;;;;4.75;3.00;;;32.60;88.00;;;;;;5123327;27;20433;-75
2022/07/18 13:09:37;;;;;;;5.68;3.25;;;32.80;88.00;;;;;;5121605;27;20399;-75
2022/07/18 13:12:03;;;;;;;5.60;3.38;;;32.60;88.30;;;;;;5123404;27;21047;-75
2022/07/18 13:14:29;;;;;;;5.85;3.30;;;32.50;88.00;;;;;;5131603;27;20399;-75
2022/07/18 13:17:14;;;;;;;6.73;3.30;;;32.30;88.20;;;;;;5124397;27;20418;-75
2022/07/18 13:19:40;;;;;;;5.60;3.08;;;32.50;87.50;;;;;;5082279;27;20469;-75
2022/07/18 13:22:05;;;;;;;6.65;3.50;;;32.70;89.40;;;;;;5112622;27;20544;-75
2022/07/18 13:24:31;;;;;;;6.20;3.30;;;32.80;89.20;;;;;;5107718;27;20428;-75